createdAt,value
2018-11-21T00:02:39.935Z,94.00
2018-11-21T00:08:45.558Z,93.20
2018-11-21T00:14:46.089Z,93.30
2018-11-21T00:20:46.544Z,92.80
2018-11-21T00:27:00.367Z,92.10
2018-11-21T00:33:13.051Z,92.60
2018-11-21T00:39:07.551Z,92.80
2018-11-21T00:44:49.952Z,92.60
2018-11-21T00:50:45.473Z,93.50
2018-11-21T00:57:01.195Z,95.30
2018-11-21T01:03:05.665Z,94.80
2018-11-21T01:09:06.465Z,95.20
2018-11-21T01:15:08.963Z,95.30
2018-11-21T01:20:54.693Z,95.50
2018-11-21T01:26:55.961Z,96.30
2018-11-21T01:32:58.495Z,95.90
2018-11-21T01:39:00.133Z,94.70
2018-11-21T01:44:41.546Z,93.90
2018-11-21T01:50:43.050Z,94.10
2018-11-21T01:56:42.652Z,93.40
2018-11-21T02:02:45.178Z,92.40
2018-11-21T02:08:58.233Z,92.80
2018-11-21T02:15:14.660Z,92.10
2018-11-21T02:21:28.361Z,94.00
2018-11-21T02:27:46.140Z,94.40
2018-11-21T02:34:00.747Z,94.90
2018-11-21T02:40:02.391Z,94.80
2018-11-21T02:45:53.866Z,94.50
2018-11-21T02:51:58.790Z,96.70
2018-11-21T02:57:58.870Z,95.40
2018-11-21T03:04:03.408Z,94.50
2018-11-21T03:09:45.075Z,95.00
2018-11-21T03:16:03.797Z,94.00
2018-11-21T03:22:17.864Z,94.20
2018-11-21T03:28:35.925Z,94.10
2018-11-21T03:34:49.893Z,94.20
2018-11-21T03:40:45.428Z,94.00
2018-11-21T03:46:33.912Z,93.30
2018-11-21T03:52:47.555Z,93.10
2018-11-21T03:59:00.321Z,92.90
2018-11-21T04:05:08.096Z,92.40
2018-11-21T04:11:08.514Z,92.80
2018-11-21T04:17:09.022Z,91.90
2018-11-21T04:23:07.633Z,91.50
2018-11-21T04:29:11.148Z,92.90
2018-11-21T04:35:11.803Z,92.60
2018-11-21T04:41:12.375Z,93.30
2018-11-21T04:47:00.965Z,93.50
2018-11-21T05:05:06.647Z,93.40
2018-11-21T05:10:49.151Z,93.20
2018-11-21T05:16:49.533Z,93.40
2018-11-21T05:22:54.214Z,94.50
2018-11-21T05:28:57.777Z,94.30
2018-11-21T05:40:58.881Z,93.70
2018-11-21T05:46:35.251Z,94.60
2018-11-21T05:52:37.838Z,94.50
2018-11-21T06:09:58.924Z,94.70
2018-11-21T06:22:02.276Z,93.70
2018-11-21T06:28:03.062Z,94.40
2018-11-21T06:34:02.402Z,94.80
2018-11-21T06:46:05.564Z,95.10
2018-11-21T06:52:08.157Z,95.50
2018-11-21T06:58:08.806Z,95.40
2018-11-21T07:04:09.359Z,96.00
2018-11-21T07:10:17.325Z,96.00
2018-11-21T07:16:17.705Z,95.80
2018-11-21T07:22:19.092Z,95.30
2018-11-21T07:28:21.877Z,94.90
2018-11-21T07:46:10.292Z,94.90
2018-11-21T07:51:48.552Z,94.60
2018-11-21T07:57:52.215Z,95.10
2018-11-21T08:03:54.777Z,96.00
2018-11-21T08:19:49.287Z,96.00
2018-11-21T08:38:07.125Z,96.60
2018-11-21T08:44:09.714Z,96.30
2018-11-21T08:49:53.035Z,96.60
2018-11-21T08:55:41.561Z,96.90
2018-11-21T09:01:24.018Z,96.90
2018-11-21T09:07:26.925Z,95.60
2018-11-21T09:13:11.835Z,97.10
2018-11-21T09:19:13.505Z,95.20
2018-11-21T09:25:15.132Z,93.80
2018-11-21T09:31:00.478Z,94.30
2018-11-21T09:36:42.914Z,94.60
2018-11-21T09:42:46.533Z,93.80
2018-11-21T09:48:47.089Z,94.50
2018-11-21T10:00:46.228Z,92.70
2018-11-21T10:06:46.799Z,92.40
2018-11-21T10:12:50.403Z,93.00
2018-11-21T10:18:56.705Z,92.40
2018-11-21T10:25:10.733Z,92.30
2018-11-21T10:37:41.372Z,91.80
2018-11-21T10:43:53.803Z,91.80
2018-11-21T10:49:55.431Z,91.80
2018-11-21T10:55:44.874Z,92.00
2018-11-21T11:02:03.660Z,93.50
2018-11-21T11:08:41.582Z,93.10
2018-11-21T11:15:08.492Z,93.00
2018-11-21T11:21:51.534Z,92.90
2018-11-21T11:34:19.531Z,92.60
2018-11-21T11:40:47.744Z,93.20
2018-11-21T11:47:12.838Z,92.10
2018-11-21T11:53:12.023Z,93.10
2018-11-21T11:59:11.650Z,92.10
2018-11-21T12:05:47.538Z,91.70
2018-11-21T12:12:18.544Z,91.40
2018-11-21T12:18:48.322Z,93.10
2018-11-21T12:25:23.243Z,92.10
2018-11-21T12:31:56.151Z,92.20
2018-11-21T12:44:54.831Z,91.70
2018-11-21T12:51:08.392Z,92.50
2018-11-21T13:01:12.524Z,92.80
2018-11-21T13:07:00.958Z,92.30
2018-11-21T13:13:01.549Z,92.20
2018-11-21T13:19:22.228Z,92.00
2018-11-21T13:25:44.075Z,91.00
2018-11-21T13:32:22.600Z,89.90
2018-11-21T13:38:45.749Z,90.90
2018-11-21T13:51:35.369Z,91.40
2018-11-21T13:57:38.970Z,92.10
2018-11-21T14:03:40.418Z,91.00
2018-11-21T14:09:42.164Z,91.90
2018-11-21T14:15:46.646Z,92.50
2018-11-21T14:21:29.136Z,91.90
2018-11-21T14:27:30.709Z,92.20
2018-11-21T14:33:32.336Z,92.60
2018-11-21T14:39:36.040Z,93.00
2018-11-21T14:45:20.350Z,94.20
2018-11-21T14:51:33.779Z,94.30
2018-11-21T14:57:46.742Z,93.50
2018-11-21T15:03:37.954Z,93.10
2018-11-21T15:15:53.501Z,91.90
2018-11-21T15:21:54.051Z,91.20
2018-11-21T15:27:56.666Z,92.70
2018-11-21T15:33:57.317Z,92.70
2018-11-21T15:39:59.826Z,92.00
2018-11-21T15:46:02.405Z,92.50
2018-11-21T15:52:06.099Z,92.60
2018-11-21T15:58:07.681Z,93.20
2018-11-21T16:03:58.077Z,93.00
2018-11-21T16:10:01.658Z,93.30
2018-11-21T16:16:03.397Z,93.00
2018-11-21T16:22:07.849Z,93.50
2018-11-21T16:28:08.596Z,94.20
2018-11-21T16:34:16.058Z,95.00
2018-11-21T16:40:30.766Z,94.50
2018-11-21T16:46:44.474Z,93.00
2018-11-21T16:52:57.159Z,93.30
2018-11-21T17:02:37.732Z,90.70
2018-11-21T17:08:40.229Z,90.10
2018-11-21T17:14:53.188Z,91.30
2018-11-21T17:21:08.976Z,90.60
2018-11-21T17:27:23.684Z,91.20
2018-11-21T17:33:18.455Z,89.40
2018-11-21T17:39:19.706Z,89.90
2018-11-21T17:45:21.287Z,90.60
2018-11-21T17:51:26.593Z,92.20
2018-11-21T17:57:27.976Z,91.70
2018-11-21T18:03:03.094Z,90.00
2018-11-21T18:09:04.377Z,89.40
2018-11-21T18:15:06.041Z,90.30
2018-11-21T18:21:06.579Z,89.60
2018-11-21T18:27:11.066Z,89.10
2018-11-21T18:33:14.736Z,87.70
2018-11-21T18:39:15.619Z,88.40
2018-11-21T18:45:19.788Z,87.60
2018-11-21T18:51:33.345Z,87.00
2018-11-21T18:58:42.868Z,87.60
2018-11-21T19:04:32.328Z,87.50
2018-11-21T19:16:39.831Z,87.20
2018-11-21T19:22:39.461Z,87.30
2018-11-21T19:28:43.631Z,87.70
2018-11-21T19:34:47.309Z,87.20
2018-11-21T19:40:48.190Z,87.90
2018-11-21T19:46:51.469Z,87.80
2018-11-21T19:53:06.178Z,87.50
2018-11-21T19:59:20.264Z,86.80
2018-11-21T20:05:11.699Z,87.20
2018-11-21T20:11:24.464Z,86.90
2018-11-21T20:17:37.611Z,87.10
2018-11-21T20:23:52.775Z,87.50
2018-11-21T20:29:54.716Z,86.60
2018-11-21T20:35:54.525Z,87.60
2018-11-21T20:41:54.219Z,88.60
2018-11-21T20:47:55.748Z,89.00
2018-11-21T20:53:57.104Z,89.90
2018-11-21T21:00:17.090Z,87.70
2018-11-21T21:06:16.649Z,89.10
2018-11-21T21:12:30.346Z,88.70
2018-11-21T21:24:34.516Z,88.30
2018-11-21T21:30:35.850Z,88.90
2018-11-21T21:36:18.489Z,89.20
2018-11-21T21:42:21.079Z,89.00
2018-11-21T21:54:21.208Z,88.20
2018-11-21T22:00:22.791Z,89.00
2018-11-21T22:12:00.067Z,87.80
2018-11-21T22:24:06.955Z,87.70
2018-11-21T22:30:07.461Z,87.20
2018-11-21T22:35:58.309Z,87.40
2018-11-21T22:47:56.042Z,86.30
2018-11-21T22:54:00.370Z,85.60
2018-11-21T22:59:43.182Z,86.30
2018-11-21T23:05:37.747Z,85.70
2018-11-21T23:11:48.287Z,85.90
2018-11-21T23:18:01.918Z,85.80
2018-11-21T23:30:28.376Z,85.80
2018-11-21T23:36:30.896Z,86.50
2018-11-21T23:42:32.546Z,87.30
2018-11-21T23:48:33.047Z,87.80
2018-11-21T23:54:33.922Z,87.20
